sensor_id;sensor_type;location;lat;lon;timestamp;pressure;altitude;pressure_sealevel;temperature;humidity
12358;BME280;6243;51.244;6.774;2024-01-07T00:01:37;115150.97;;;-141.28;46.34
12358;BME280;6243;51.244;6.774;2024-01-07T00:04:03;115150.97;;;-141.28;46.35
12358;BME280;6243;51.244;6.774;2024-01-07T00:06:30;115150.97;;;-141.28;46.13
12358;BME280;6243;51.244;6.774;2024-01-07T00:08:56;115150.97;;;-141.28;46.23
12358;BME280;6243;51.244;6.774;2024-01-07T00:11:22;115150.97;;;-141.28;46.11
12358;BME280;6243;51.244;6.774;2024-01-07T00:13:48;115150.97;;;-141.28;45.82
12358;BME280;6243;51.244;6.774;2024-01-07T00:16:18;115150.97;;;-141.28;46.43
12358;BME280;6243;51.244;6.774;2024-01-07T00:18:44;115150.97;;;-141.28;46.01
12358;BME280;6243;51.244;6.774;2024-01-07T00:21:09;115150.97;;;-141.28;47.34
12358;BME280;6243;51.244;6.774;2024-01-07T00:23:36;115150.97;;;-141.28;46.71
12358;BME280;6243;51.244;6.774;2024-01-07T00:26:02;115150.97;;;-141.28;46.26
12358;BME280;6243;51.244;6.774;2024-01-07T00:28:27;115150.97;;;-141.28;46.26
12358;BME280;6243;51.244;6.774;2024-01-07T00:30:53;115150.97;;;-141.28;46.62
12358;BME280;6243;51.244;6.774;2024-01-07T00:33:18;115150.97;;;-141.28;46.45
12358;BME280;6243;51.244;6.774;2024-01-07T00:35:44;115150.97;;;-141.28;46.62
12358;BME280;6243;51.244;6.774;2024-01-07T00:38:09;115150.97;;;-141.28;47.02
12358;BME280;6243;51.244;6.774;2024-01-07T00:40:36;115150.97;;;-141.28;47.03
12358;BME280;6243;51.244;6.774;2024-01-07T00:43:02;115150.97;;;-141.28;46.63
12358;BME280;6243;51.244;6.774;2024-01-07T00:45:27;115150.97;;;-141.28;47.02
12358;BME280;6243;51.244;6.774;2024-01-07T00:47:53;115150.97;;;-141.28;46.82
12358;BME280;6243;51.244;6.774;2024-01-07T00:50:18;115150.97;;;-141.28;46.84
12358;BME280;6243;51.244;6.774;2024-01-07T00:52:44;115150.97;;;-141.28;46.75
12358;BME280;6243;51.244;6.774;2024-01-07T00:55:09;115150.97;;;-141.28;46.96
12358;BME280;6243;51.244;6.774;2024-01-07T00:57:36;115150.97;;;-141.28;46.60
12358;BME280;6243;51.244;6.774;2024-01-07T01:00:05;115150.97;;;-141.28;46.53
12358;BME280;6243;51.244;6.774;2024-01-07T01:02:31;115150.97;;;-141.28;47.09
12358;BME280;6243;51.244;6.774;2024-01-07T01:04:56;115150.97;;;-141.28;48.11
12358;BME280;6243;51.244;6.774;2024-01-07T01:07:22;115150.97;;;-141.28;47.09
12358;BME280;6243;51.244;6.774;2024-01-07T01:09:47;115150.97;;;-141.28;47.11
12358;BME280;6243;51.244;6.774;2024-01-07T01:12:13;115150.97;;;-141.28;47.25
12358;BME280;6243;51.244;6.774;2024-01-07T01:14:40;115150.97;;;-141.28;47.03
12358;BME280;6243;51.244;6.774;2024-01-07T01:17:06;115150.97;;;-141.28;46.44
12358;BME280;6243;51.244;6.774;2024-01-07T01:19:31;115150.97;;;-141.28;46.61
12358;BME280;6243;51.244;6.774;2024-01-07T01:21:57;115150.97;;;-141.28;47.10
12358;BME280;6243;51.244;6.774;2024-01-07T01:24:23;115150.97;;;-141.28;47.10
12358;BME280;6243;51.244;6.774;2024-01-07T01:26:48;115150.97;;;-141.28;46.96
12358;BME280;6243;51.244;6.774;2024-01-07T01:29:14;115150.97;;;-141.28;47.07
12358;BME280;6243;51.244;6.774;2024-01-07T01:31:40;115150.97;;;-141.28;46.83
12358;BME280;6243;51.244;6.774;2024-01-07T01:34:06;115150.97;;;-141.28;46.86
12358;BME280;6243;51.244;6.774;2024-01-07T01:36:32;115150.97;;;-141.28;46.49
12358;BME280;6243;51.244;6.774;2024-01-07T01:38:57;115150.97;;;-141.28;47.33
12358;BME280;6243;51.244;6.774;2024-01-07T01:41:23;115150.97;;;-141.28;49.00
12358;BME280;6243;51.244;6.774;2024-01-07T01:43:48;115150.97;;;-141.28;48.52
12358;BME280;6243;51.244;6.774;2024-01-07T01:46:14;115150.97;;;-141.28;49.03
12358;BME280;6243;51.244;6.774;2024-01-07T01:48:41;115150.97;;;-141.28;47.90
12358;BME280;6243;51.244;6.774;2024-01-07T01:51:08;115150.97;;;-141.28;47.85
12358;BME280;6243;51.244;6.774;2024-01-07T01:53:33;115150.97;;;-141.28;48.35
12358;BME280;6243;51.244;6.774;2024-01-07T01:56:01;115150.97;;;-141.28;47.64
12358;BME280;6243;51.244;6.774;2024-01-07T01:58:28;115150.97;;;-141.28;47.80
12358;BME280;6243;51.244;6.774;2024-01-07T02:00:54;115150.97;;;-141.28;47.92
12358;BME280;6243;51.244;6.774;2024-01-07T02:03:20;115150.97;;;-141.28;47.80
12358;BME280;6243;51.244;6.774;2024-01-07T02:05:48;115150.97;;;-141.28;47.09
12358;BME280;6243;51.244;6.774;2024-01-07T02:08:14;115150.97;;;-141.28;47.25
12358;BME280;6243;51.244;6.774;2024-01-07T02:10:39;115150.97;;;-141.28;47.19
12358;BME280;6243;51.244;6.774;2024-01-07T02:13:05;115150.97;;;-141.28;47.24
12358;BME280;6243;51.244;6.774;2024-01-07T02:15:30;115150.97;;;-141.28;46.82
12358;BME280;6243;51.244;6.774;2024-01-07T02:17:56;115150.97;;;-141.28;48.24
12358;BME280;6243;51.244;6.774;2024-01-07T02:20:21;115150.97;;;-141.28;47.88
12358;BME280;6243;51.244;6.774;2024-01-07T02:22:48;115150.97;;;-141.28;48.88
12358;BME280;6243;51.244;6.774;2024-01-07T02:25:15;115150.97;;;-141.28;48.47
12358;BME280;6243;51.244;6.774;2024-01-07T02:27:41;115150.97;;;-141.28;47.69
12358;BME280;6243;51.244;6.774;2024-01-07T02:30:07;115150.97;;;-141.28;48.79
12358;BME280;6243;51.244;6.774;2024-01-07T02:32:33;115150.97;;;-141.28;48.86
12358;BME280;6243;51.244;6.774;2024-01-07T02:34:59;115150.97;;;-141.28;48.16
12358;BME280;6243;51.244;6.774;2024-01-07T02:37:24;115150.97;;;-141.28;48.30
12358;BME280;6243;51.244;6.774;2024-01-07T02:39:49;115150.97;;;-141.28;49.54
12358;BME280;6243;51.244;6.774;2024-01-07T02:42:16;115150.97;;;-141.28;48.58
12358;BME280;6243;51.244;6.774;2024-01-07T02:44:42;115150.97;;;-141.28;49.01
12358;BME280;6243;51.244;6.774;2024-01-07T02:47:07;115150.97;;;-141.28;48.78
12358;BME280;6243;51.244;6.774;2024-01-07T02:49:33;115150.97;;;-141.28;49.47
12358;BME280;6243;51.244;6.774;2024-01-07T02:51:58;115150.97;;;-141.28;49.53
12358;BME280;6243;51.244;6.774;2024-01-07T02:54:24;115150.97;;;-141.28;50.36
12358;BME280;6243;51.244;6.774;2024-01-07T02:56:49;115150.97;;;-141.28;50.16
12358;BME280;6243;51.244;6.774;2024-01-07T02:59:16;115150.97;;;-141.28;49.38
12358;BME280;6243;51.244;6.774;2024-01-07T03:04:38;115150.97;;;-141.28;49.23
12358;BME280;6243;51.244;6.774;2024-01-07T03:07:03;115150.97;;;-141.28;50.48
12358;BME280;6243;51.244;6.774;2024-01-07T03:09:29;115150.97;;;-141.28;50.61
12358;BME280;6243;51.244;6.774;2024-01-07T03:11:54;115150.97;;;-141.28;51.96
12358;BME280;6243;51.244;6.774;2024-01-07T03:14:21;115150.97;;;-141.28;50.94
12358;BME280;6243;51.244;6.774;2024-01-07T03:16:46;115150.97;;;-141.28;51.21
12358;BME280;6243;51.244;6.774;2024-01-07T03:19:12;115150.97;;;-141.28;50.05
12358;BME280;6243;51.244;6.774;2024-01-07T03:21:37;115150.97;;;-141.28;50.34
12358;BME280;6243;51.244;6.774;2024-01-07T03:24:04;115150.97;;;-141.28;50.51
12358;BME280;6243;51.244;6.774;2024-01-07T03:26:30;115150.97;;;-141.28;50.53
12358;BME280;6243;51.244;6.774;2024-01-07T03:28:55;115150.97;;;-141.28;49.13
12358;BME280;6243;51.244;6.774;2024-01-07T03:31:22;115150.97;;;-141.28;49.27
12358;BME280;6243;51.244;6.774;2024-01-07T03:33:48;115150.97;;;-141.28;49.45
12358;BME280;6243;51.244;6.774;2024-01-07T03:36:14;115150.97;;;-141.28;50.96
12358;BME280;6243;51.244;6.774;2024-01-07T03:38:40;115150.97;;;-141.28;51.28
12358;BME280;6243;51.244;6.774;2024-01-07T03:41:06;115150.97;;;-141.28;50.30
12358;BME280;6243;51.244;6.774;2024-01-07T03:43:32;115150.97;;;-141.28;50.82
12358;BME280;6243;51.244;6.774;2024-01-07T03:45:58;115150.97;;;-141.28;50.67
12358;BME280;6243;51.244;6.774;2024-01-07T03:48:25;115150.97;;;-141.28;51.04
12358;BME280;6243;51.244;6.774;2024-01-07T03:50:50;115150.97;;;-141.28;50.22
12358;BME280;6243;51.244;6.774;2024-01-07T03:53:16;115150.97;;;-141.28;49.31
12358;BME280;6243;51.244;6.774;2024-01-07T03:55:41;115150.97;;;-141.28;49.73
12358;BME280;6243;51.244;6.774;2024-01-07T03:58:07;115150.97;;;-141.28;49.71
12358;BME280;6243;51.244;6.774;2024-01-07T04:00:33;115150.97;;;-141.28;49.30
12358;BME280;6243;51.244;6.774;2024-01-07T04:02:59;115150.97;;;-141.28;48.53
12358;BME280;6243;51.244;6.774;2024-01-07T04:05:26;115150.97;;;-141.28;50.35
12358;BME280;6243;51.244;6.774;2024-01-07T04:07:51;115150.97;;;-141.28;49.75
12358;BME280;6243;51.244;6.774;2024-01-07T04:10:17;115150.97;;;-141.28;48.78
12358;BME280;6243;51.244;6.774;2024-01-07T04:12:43;115150.97;;;-141.28;49.28
12358;BME280;6243;51.244;6.774;2024-01-07T04:15:10;115150.97;;;-141.28;49.24
12358;BME280;6243;51.244;6.774;2024-01-07T04:17:35;115150.97;;;-141.28;49.99
12358;BME280;6243;51.244;6.774;2024-01-07T04:20:01;115150.97;;;-141.28;49.15
12358;BME280;6243;51.244;6.774;2024-01-07T04:22:27;115150.97;;;-141.28;50.08
12358;BME280;6243;51.244;6.774;2024-01-07T04:24:53;115150.97;;;-141.28;49.89
12358;BME280;6243;51.244;6.774;2024-01-07T04:27:18;115150.97;;;-141.28;51.01
12358;BME280;6243;51.244;6.774;2024-01-07T04:29:44;115150.97;;;-141.28;51.06
12358;BME280;6243;51.244;6.774;2024-01-07T04:32:10;115150.97;;;-141.28;51.46
12358;BME280;6243;51.244;6.774;2024-01-07T04:34:35;115150.97;;;-141.28;50.48
12358;BME280;6243;51.244;6.774;2024-01-07T04:37:01;115150.97;;;-141.28;51.43
12358;BME280;6243;51.244;6.774;2024-01-07T04:39:28;115150.97;;;-141.28;51.37
12358;BME280;6243;51.244;6.774;2024-01-07T04:41:53;115150.97;;;-141.28;50.36
12358;BME280;6243;51.244;6.774;2024-01-07T04:44:19;115150.97;;;-141.28;49.98
12358;BME280;6243;51.244;6.774;2024-01-07T04:46:44;115150.97;;;-141.28;50.76
12358;BME280;6243;51.244;6.774;2024-01-07T04:49:10;115150.97;;;-141.28;51.48
12358;BME280;6243;51.244;6.774;2024-01-07T04:51:35;115150.97;;;-141.28;52.23
12358;BME280;6243;51.244;6.774;2024-01-07T04:54:01;115150.97;;;-141.28;51.71
12358;BME280;6243;51.244;6.774;2024-01-07T04:56:28;115150.97;;;-141.28;52.43
12358;BME280;6243;51.244;6.774;2024-01-07T04:58:53;115150.97;;;-141.28;52.03
12358;BME280;6243;51.244;6.774;2024-01-07T05:01:19;115150.97;;;-141.28;51.79
12358;BME280;6243;51.244;6.774;2024-01-07T05:03:44;115150.97;;;-141.28;51.73
12358;BME280;6243;51.244;6.774;2024-01-07T05:06:10;115150.97;;;-141.28;50.87
12358;BME280;6243;51.244;6.774;2024-01-07T05:08:36;115150.97;;;-141.28;51.53
12358;BME280;6243;51.244;6.774;2024-01-07T05:11:02;115150.97;;;-141.28;51.41
12358;BME280;6243;51.244;6.774;2024-01-07T05:13:29;115150.97;;;-141.28;53.36
12358;BME280;6243;51.244;6.774;2024-01-07T05:15:54;115150.97;;;-141.28;51.76
12358;BME280;6243;51.244;6.774;2024-01-07T05:18:20;115150.97;;;-141.28;53.33
12358;BME280;6243;51.244;6.774;2024-01-07T05:20:46;115150.97;;;-141.28;54.15
12358;BME280;6243;51.244;6.774;2024-01-07T05:23:11;115150.97;;;-141.28;51.94
12358;BME280;6243;51.244;6.774;2024-01-07T05:25:37;115150.97;;;-141.28;52.15
12358;BME280;6243;51.244;6.774;2024-01-07T05:28:03;115150.97;;;-141.28;52.16
12358;BME280;6243;51.244;6.774;2024-01-07T05:30:30;115150.97;;;-141.28;51.03
12358;BME280;6243;51.244;6.774;2024-01-07T05:32:55;115150.97;;;-141.28;51.66
12358;BME280;6243;51.244;6.774;2024-01-07T05:35:21;115150.97;;;-141.28;52.33
12358;BME280;6243;51.244;6.774;2024-01-07T05:37:46;115150.97;;;-141.28;51.35
12358;BME280;6243;51.244;6.774;2024-01-07T05:40:12;115150.97;;;-141.28;52.20
12358;BME280;6243;51.244;6.774;2024-01-07T05:42:37;115150.97;;;-141.28;51.46
12358;BME280;6243;51.244;6.774;2024-01-07T05:45:03;115150.97;;;-141.28;51.68
12358;BME280;6243;51.244;6.774;2024-01-07T05:47:30;115150.97;;;-141.28;51.51
12358;BME280;6243;51.244;6.774;2024-01-07T05:49:56;115150.97;;;-141.28;51.34
12358;BME280;6243;51.244;6.774;2024-01-07T05:52:21;115150.97;;;-141.28;50.86
12358;BME280;6243;51.244;6.774;2024-01-07T05:54:47;115150.97;;;-141.28;51.21
12358;BME280;6243;51.244;6.774;2024-01-07T05:57:12;115150.97;;;-141.28;51.22
12358;BME280;6243;51.244;6.774;2024-01-07T05:59:38;115150.97;;;-141.28;51.08
12358;BME280;6243;51.244;6.774;2024-01-07T06:02:03;115150.97;;;-141.28;50.95
12358;BME280;6243;51.244;6.774;2024-01-07T06:04:30;115150.97;;;-141.28;51.35
12358;BME280;6243;51.244;6.774;2024-01-07T06:06:56;115150.97;;;-141.28;50.80
12358;BME280;6243;51.244;6.774;2024-01-07T06:09:21;115150.97;;;-141.28;50.73
12358;BME280;6243;51.244;6.774;2024-01-07T06:11:47;115150.97;;;-141.28;50.23
12358;BME280;6243;51.244;6.774;2024-01-07T06:14:12;115150.97;;;-141.28;51.96
12358;BME280;6243;51.244;6.774;2024-01-07T06:16:38;115150.97;;;-141.28;51.18
12358;BME280;6243;51.244;6.774;2024-01-07T06:19:03;115150.97;;;-141.28;50.36
12358;BME280;6243;51.244;6.774;2024-01-07T06:21:30;115150.97;;;-141.28;49.40
12358;BME280;6243;51.244;6.774;2024-01-07T06:23:56;115150.97;;;-141.28;50.19
12358;BME280;6243;51.244;6.774;2024-01-07T06:26:21;115150.97;;;-141.28;51.15
12358;BME280;6243;51.244;6.774;2024-01-07T06:28:47;115150.97;;;-141.28;50.02
12358;BME280;6243;51.244;6.774;2024-01-07T06:31:12;115150.97;;;-141.28;50.57
12358;BME280;6243;51.244;6.774;2024-01-07T06:33:38;115150.97;;;-141.28;50.96
12358;BME280;6243;51.244;6.774;2024-01-07T06:36:03;115150.97;;;-141.28;51.15
12358;BME280;6243;51.244;6.774;2024-01-07T06:38:30;115150.97;;;-141.28;51.71
12358;BME280;6243;51.244;6.774;2024-01-07T06:40:56;115150.97;;;-141.28;52.02
12358;BME280;6243;51.244;6.774;2024-01-07T06:43:21;115150.97;;;-141.28;52.16
12358;BME280;6243;51.244;6.774;2024-01-07T06:45:47;115150.97;;;-141.28;50.88
12358;BME280;6243;51.244;6.774;2024-01-07T06:48:12;115150.97;;;-141.28;51.37
12358;BME280;6243;51.244;6.774;2024-01-07T06:50:38;115150.97;;;-141.28;51.40
12358;BME280;6243;51.244;6.774;2024-01-07T06:53:03;115150.97;;;-141.28;51.40
12358;BME280;6243;51.244;6.774;2024-01-07T06:55:30;115150.97;;;-141.28;50.98
12358;BME280;6243;51.244;6.774;2024-01-07T06:57:56;115150.97;;;-141.28;50.93
12358;BME280;6243;51.244;6.774;2024-01-07T07:00:21;115150.97;;;-141.28;49.03
12358;BME280;6243;51.244;6.774;2024-01-07T07:02:47;115150.97;;;-141.28;51.09
12358;BME280;6243;51.244;6.774;2024-01-07T07:05:12;115150.97;;;-141.28;50.21
12358;BME280;6243;51.244;6.774;2024-01-07T07:07:38;115150.97;;;-141.28;49.63
12358;BME280;6243;51.244;6.774;2024-01-07T07:10:04;115150.97;;;-141.28;50.72
12358;BME280;6243;51.244;6.774;2024-01-07T07:12:30;115150.97;;;-141.28;49.84
12358;BME280;6243;51.244;6.774;2024-01-07T07:14:56;115150.97;;;-141.28;50.09
12358;BME280;6243;51.244;6.774;2024-01-07T07:17:21;115150.97;;;-141.28;49.75
12358;BME280;6243;51.244;6.774;2024-01-07T07:19:47;115150.97;;;-141.28;49.51
12358;BME280;6243;51.244;6.774;2024-01-07T07:22:12;115150.97;;;-141.28;50.28
12358;BME280;6243;51.244;6.774;2024-01-07T07:24:40;115150.97;;;-141.28;50.08
12358;BME280;6243;51.244;6.774;2024-01-07T07:27:06;115150.97;;;-141.28;50.32
12358;BME280;6243;51.244;6.774;2024-01-07T07:29:32;115150.97;;;-141.28;49.91
12358;BME280;6243;51.244;6.774;2024-01-07T07:31:58;115150.97;;;-141.28;49.46
12358;BME280;6243;51.244;6.774;2024-01-07T07:34:23;115150.97;;;-141.28;50.75
12358;BME280;6243;51.244;6.774;2024-01-07T07:36:49;115150.97;;;-141.28;51.43
12358;BME280;6243;51.244;6.774;2024-01-07T07:39:14;115150.97;;;-141.28;51.43
12358;BME280;6243;51.244;6.774;2024-01-07T07:41:40;115150.97;;;-141.28;52.41
12358;BME280;6243;51.244;6.774;2024-01-07T07:44:05;115150.97;;;-141.28;51.39
12358;BME280;6243;51.244;6.774;2024-01-07T07:46:32;115150.97;;;-141.28;51.48
12358;BME280;6243;51.244;6.774;2024-01-07T07:48:58;115150.97;;;-141.28;52.34
12358;BME280;6243;51.244;6.774;2024-01-07T07:51:23;115150.97;;;-141.28;51.50
12358;BME280;6243;51.244;6.774;2024-01-07T07:53:49;115150.97;;;-141.28;50.32
12358;BME280;6243;51.244;6.774;2024-01-07T07:56:14;115150.97;;;-141.28;51.25
12358;BME280;6243;51.244;6.774;2024-01-07T07:58:40;115150.97;;;-141.28;50.77
12358;BME280;6243;51.244;6.774;2024-01-07T08:01:05;115150.97;;;-141.28;51.03
12358;BME280;6243;51.244;6.774;2024-01-07T08:03:32;115150.97;;;-141.28;50.36
12358;BME280;6243;51.244;6.774;2024-01-07T08:05:58;115150.97;;;-141.28;50.28
12358;BME280;6243;51.244;6.774;2024-01-07T08:08:23;115150.97;;;-141.28;50.83
12358;BME280;6243;51.244;6.774;2024-01-07T08:10:49;115150.97;;;-141.28;51.23
12358;BME280;6243;51.244;6.774;2024-01-07T08:13:14;115150.97;;;-141.28;51.43
12358;BME280;6243;51.244;6.774;2024-01-07T08:15:40;115150.97;;;-141.28;50.53
12358;BME280;6243;51.244;6.774;2024-01-07T08:18:05;115150.97;;;-141.28;51.60
12358;BME280;6243;51.244;6.774;2024-01-07T08:20:32;115150.97;;;-141.28;51.52
12358;BME280;6243;51.244;6.774;2024-01-07T08:22:57;115150.97;;;-141.28;51.21
12358;BME280;6243;51.244;6.774;2024-01-07T08:25:23;115150.97;;;-141.28;52.31
12358;BME280;6243;51.244;6.774;2024-01-07T08:27:49;115150.97;;;-141.28;51.77
12358;BME280;6243;51.244;6.774;2024-01-07T08:30:14;115150.97;;;-141.28;50.78
12358;BME280;6243;51.244;6.774;2024-01-07T08:32:40;115150.97;;;-141.28;51.01
12358;BME280;6243;51.244;6.774;2024-01-07T08:35:06;115150.97;;;-141.28;49.77
12358;BME280;6243;51.244;6.774;2024-01-07T08:37:33;115150.97;;;-141.28;51.24
12358;BME280;6243;51.244;6.774;2024-01-07T08:39:59;115150.97;;;-141.28;51.59
12358;BME280;6243;51.244;6.774;2024-01-07T08:42:24;115150.97;;;-141.28;50.21
12358;BME280;6243;51.244;6.774;2024-01-07T08:44:50;115150.97;;;-141.28;49.97
12358;BME280;6243;51.244;6.774;2024-01-07T08:47:15;115150.97;;;-141.28;48.79
12358;BME280;6243;51.244;6.774;2024-01-07T08:49:41;115150.97;;;-141.28;50.57
12358;BME280;6243;51.244;6.774;2024-01-07T08:52:06;115150.97;;;-141.28;50.07
12358;BME280;6243;51.244;6.774;2024-01-07T08:54:33;115150.97;;;-141.28;48.88
12358;BME280;6243;51.244;6.774;2024-01-07T08:56:59;115150.97;;;-141.28;49.55
12358;BME280;6243;51.244;6.774;2024-01-07T08:59:24;115150.97;;;-141.28;49.45
12358;BME280;6243;51.244;6.774;2024-01-07T09:01:50;115150.97;;;-141.28;49.33
12358;BME280;6243;51.244;6.774;2024-01-07T09:04:15;115150.97;;;-141.28;50.54
12358;BME280;6243;51.244;6.774;2024-01-07T09:06:41;115150.97;;;-141.28;50.32
12358;BME280;6243;51.244;6.774;2024-01-07T09:09:06;115150.97;;;-141.28;49.76
12358;BME280;6243;51.244;6.774;2024-01-07T09:11:33;115150.97;;;-141.28;50.01
12358;BME280;6243;51.244;6.774;2024-01-07T09:13:59;115150.97;;;-141.28;50.02
12358;BME280;6243;51.244;6.774;2024-01-07T09:16:24;115150.97;;;-141.28;49.47
12358;BME280;6243;51.244;6.774;2024-01-07T09:18:50;115150.97;;;-141.28;49.25
12358;BME280;6243;51.244;6.774;2024-01-07T09:21:15;115150.97;;;-141.28;48.44
12358;BME280;6243;51.244;6.774;2024-01-07T09:23:41;115150.97;;;-141.28;48.18
12358;BME280;6243;51.244;6.774;2024-01-07T09:26:06;115150.97;;;-141.28;48.58
12358;BME280;6243;51.244;6.774;2024-01-07T09:28:33;115150.97;;;-141.28;48.38
12358;BME280;6243;51.244;6.774;2024-01-07T09:30:59;115150.97;;;-141.28;49.00
12358;BME280;6243;51.244;6.774;2024-01-07T09:33:24;115150.97;;;-141.28;49.20
12358;BME280;6243;51.244;6.774;2024-01-07T09:35:50;115150.97;;;-141.28;48.70
12358;BME280;6243;51.244;6.774;2024-01-07T09:38:15;115150.97;;;-141.28;48.50
12358;BME280;6243;51.244;6.774;2024-01-07T09:40:41;115150.97;;;-141.28;47.97
12358;BME280;6243;51.244;6.774;2024-01-07T09:43:06;115150.97;;;-141.28;48.02
12358;BME280;6243;51.244;6.774;2024-01-07T09:45:36;115150.97;;;-141.28;47.67
12358;BME280;6243;51.244;6.774;2024-01-07T09:48:02;115150.97;;;-141.28;48.60
12358;BME280;6243;51.244;6.774;2024-01-07T09:50:28;115150.97;;;-141.28;48.99
12358;BME280;6243;51.244;6.774;2024-01-07T09:52:55;115150.97;;;-141.28;48.33
12358;BME280;6243;51.244;6.774;2024-01-07T09:55:26;115150.97;;;-141.28;48.47
12358;BME280;6243;51.244;6.774;2024-01-07T09:57:52;115150.97;;;-141.28;48.32
12358;BME280;6243;51.244;6.774;2024-01-07T10:00:18;115150.97;;;-141.28;48.00
12358;BME280;6243;51.244;6.774;2024-01-07T10:02:44;115150.97;;;-141.28;47.87
12358;BME280;6243;51.244;6.774;2024-01-07T10:05:10;115150.97;;;-141.28;47.86
12358;BME280;6243;51.244;6.774;2024-01-07T10:07:35;115150.97;;;-141.28;48.45
12358;BME280;6243;51.244;6.774;2024-01-07T10:10:11;115150.97;;;-141.28;48.46
12358;BME280;6243;51.244;6.774;2024-01-07T10:12:37;115150.97;;;-141.28;47.73
12358;BME280;6243;51.244;6.774;2024-01-07T10:15:03;115150.97;;;-141.28;47.59
12358;BME280;6243;51.244;6.774;2024-01-07T10:17:28;115150.97;;;-141.28;48.40
12358;BME280;6243;51.244;6.774;2024-01-07T10:19:56;115150.97;;;-141.28;48.68
12358;BME280;6243;51.244;6.774;2024-01-07T10:22:21;115150.97;;;-141.28;48.03
12358;BME280;6243;51.244;6.774;2024-01-07T10:24:47;115150.97;;;-141.28;48.26
12358;BME280;6243;51.244;6.774;2024-01-07T10:27:12;115150.97;;;-141.28;48.08
12358;BME280;6243;51.244;6.774;2024-01-07T10:29:38;115150.97;;;-141.28;48.42
12358;BME280;6243;51.244;6.774;2024-01-07T10:32:04;115150.97;;;-141.28;48.33
12358;BME280;6243;51.244;6.774;2024-01-07T10:34:31;115150.97;;;-141.28;48.66
12358;BME280;6243;51.244;6.774;2024-01-07T10:36:58;115150.97;;;-141.28;47.46
12358;BME280;6243;51.244;6.774;2024-01-07T10:39:24;115150.97;;;-141.28;48.17
12358;BME280;6243;51.244;6.774;2024-01-07T10:41:50;115150.97;;;-141.28;48.53
12358;BME280;6243;51.244;6.774;2024-01-07T10:44:17;115150.97;;;-141.28;48.69
12358;BME280;6243;51.244;6.774;2024-01-07T10:46:43;115150.97;;;-141.28;47.90
12358;BME280;6243;51.244;6.774;2024-01-07T10:49:18;115150.97;;;-141.28;47.31
12358;BME280;6243;51.244;6.774;2024-01-07T10:51:45;115150.97;;;-141.28;47.92
12358;BME280;6243;51.244;6.774;2024-01-07T10:54:19;115150.97;;;-141.28;47.82
12358;BME280;6243;51.244;6.774;2024-01-07T10:56:51;115150.97;;;-141.28;47.80
12358;BME280;6243;51.244;6.774;2024-01-07T10:59:21;115150.97;;;-141.28;47.95
12358;BME280;6243;51.244;6.774;2024-01-07T11:01:47;115150.97;;;-141.28;47.46
12358;BME280;6243;51.244;6.774;2024-01-07T11:04:17;115150.97;;;-141.28;47.55
12358;BME280;6243;51.244;6.774;2024-01-07T11:06:51;115150.97;;;-141.28;47.59
12358;BME280;6243;51.244;6.774;2024-01-07T11:09:24;115150.97;;;-141.28;48.07
12358;BME280;6243;51.244;6.774;2024-01-07T11:11:52;115150.97;;;-141.28;47.58
12358;BME280;6243;51.244;6.774;2024-01-07T11:14:37;115150.97;;;-141.28;48.00
12358;BME280;6243;51.244;6.774;2024-01-07T11:17:03;115150.97;;;-141.28;47.50
12358;BME280;6243;51.244;6.774;2024-01-07T11:19:29;115150.97;;;-141.28;47.06
12358;BME280;6243;51.244;6.774;2024-01-07T11:22:21;115150.97;;;-141.28;47.43
12358;BME280;6243;51.244;6.774;2024-01-07T11:24:48;115150.97;;;-141.28;47.98
12358;BME280;6243;51.244;6.774;2024-01-07T11:27:15;115150.97;;;-141.28;47.11
12358;BME280;6243;51.244;6.774;2024-01-07T11:29:41;115150.97;;;-141.28;47.27
12358;BME280;6243;51.244;6.774;2024-01-07T11:32:06;115150.97;;;-141.28;45.94
12358;BME280;6243;51.244;6.774;2024-01-07T11:34:39;115150.97;;;-141.28;46.88
12358;BME280;6243;51.244;6.774;2024-01-07T11:37:07;115150.97;;;-141.28;47.43
12358;BME280;6243;51.244;6.774;2024-01-07T11:39:35;115150.97;;;-141.28;46.51
12358;BME280;6243;51.244;6.774;2024-01-07T11:42:02;115150.97;;;-141.28;47.43
12358;BME280;6243;51.244;6.774;2024-01-07T11:44:28;115150.97;;;-141.28;47.27
12358;BME280;6243;51.244;6.774;2024-01-07T11:46:54;115150.97;;;-141.28;47.47
12358;BME280;6243;51.244;6.774;2024-01-07T11:49:19;115150.97;;;-141.28;47.77
12358;BME280;6243;51.244;6.774;2024-01-07T11:51:45;115150.97;;;-141.28;47.90
12358;BME280;6243;51.244;6.774;2024-01-07T11:54:10;115150.97;;;-141.28;47.94
12358;BME280;6243;51.244;6.774;2024-01-07T11:56:36;115150.97;;;-141.28;47.90
12358;BME280;6243;51.244;6.774;2024-01-07T11:59:03;115150.97;;;-141.28;46.89
12358;BME280;6243;51.244;6.774;2024-01-07T12:01:28;115150.97;;;-141.28;47.35
12358;BME280;6243;51.244;6.774;2024-01-07T12:03:54;115150.97;;;-141.28;47.35
12358;BME280;6243;51.244;6.774;2024-01-07T12:06:19;115150.97;;;-141.28;47.56
12358;BME280;6243;51.244;6.774;2024-01-07T12:08:45;115150.97;;;-141.28;47.38
12358;BME280;6243;51.244;6.774;2024-01-07T12:11:12;115150.97;;;-141.28;47.12
12358;BME280;6243;51.244;6.774;2024-01-07T12:13:38;115150.97;;;-141.28;47.47
12358;BME280;6243;51.244;6.774;2024-01-07T12:16:06;115150.97;;;-141.28;47.50
12358;BME280;6243;51.244;6.774;2024-01-07T12:18:32;115150.97;;;-141.28;47.11
12358;BME280;6243;51.244;6.774;2024-01-07T12:20:59;115150.97;;;-141.28;47.62
12358;BME280;6243;51.244;6.774;2024-01-07T12:23:25;115150.97;;;-141.28;47.32
12358;BME280;6243;51.244;6.774;2024-01-07T12:25:50;115150.97;;;-141.28;47.24
12358;BME280;6243;51.244;6.774;2024-01-07T12:28:16;115150.97;;;-141.28;47.06
12358;BME280;6243;51.244;6.774;2024-01-07T12:30:42;115150.97;;;-141.28;47.67
12358;BME280;6243;51.244;6.774;2024-01-07T12:33:09;115150.97;;;-141.28;47.37
12358;BME280;6243;51.244;6.774;2024-01-07T12:35:34;115150.97;;;-141.28;47.85
12358;BME280;6243;51.244;6.774;2024-01-07T12:38:01;115150.97;;;-141.28;47.28